createdAt,value
2023-04-08T00:00:00.558Z,5.74
2023-04-08T00:02:27.706Z,5.80
2023-04-08T00:04:54.333Z,5.82
2023-04-08T00:07:21.158Z,5.82
2023-04-08T00:09:47.674Z,5.75
2023-04-08T00:12:14.251Z,5.74
2023-04-08T00:14:41.644Z,5.56
2023-04-08T00:17:09.329Z,5.67
2023-04-08T00:19:36.313Z,5.74
2023-04-08T00:22:03.042Z,5.81
2023-04-08T00:24:29.697Z,5.70
2023-04-08T00:26:56.916Z,5.76
2023-04-08T00:29:24.716Z,5.73
2023-04-08T00:31:51.581Z,5.74
2023-04-08T00:34:18.118Z,5.63
2023-04-08T00:36:45.034Z,4.88
2023-04-08T00:39:11.398Z,5.63
2023-04-08T00:41:40.036Z,5.75
2023-04-08T00:44:06.920Z,5.75
2023-04-08T00:46:38.847Z,5.44
2023-04-08T00:49:07.620Z,5.50
2023-04-08T00:51:36.594Z,5.39
2023-04-08T00:54:05.028Z,5.39
2023-04-08T00:56:32.316Z,4.25
2023-04-08T00:59:00.050Z,5.51
2023-04-08T01:01:47.706Z,5.49
2023-04-08T01:04:27.234Z,5.70
2023-04-08T01:07:04.502Z,5.47
2023-04-08T01:09:32.789Z,5.62
2023-04-08T01:12:01.384Z,5.53
2023-04-08T01:14:29.305Z,5.44
2023-04-08T01:16:57.082Z,5.51
2023-04-08T01:19:27.065Z,5.35
2023-04-08T01:21:55.027Z,5.46
2023-04-08T01:24:28.146Z,5.40
2023-04-08T01:26:57.196Z,5.51
2023-04-08T01:29:24.965Z,5.81
2023-04-08T01:31:52.042Z,5.82
2023-04-08T01:34:19.942Z,5.87
2023-04-08T01:36:47.442Z,5.91
2023-04-08T01:39:15.274Z,5.64
2023-04-08T01:41:41.823Z,5.87
2023-04-08T01:44:09.677Z,5.91
2023-04-08T01:46:37.274Z,5.57
2023-04-08T01:49:05.536Z,5.71
2023-04-08T01:51:32.808Z,5.77
2023-04-08T01:53:59.417Z,5.69
2023-04-08T01:56:27.608Z,5.59
2023-04-08T01:58:54.890Z,5.72
2023-04-08T02:01:25.167Z,5.74
2023-04-08T02:03:53.632Z,5.81
2023-04-08T02:06:20.267Z,5.90
2023-04-08T02:08:46.967Z,5.84
2023-04-08T02:11:13.630Z,5.76
2023-04-08T02:13:40.551Z,5.84
2023-04-08T02:16:16.103Z,5.78
2023-04-08T02:18:44.701Z,5.52
2023-04-08T02:21:19.451Z,5.66
2023-04-08T02:23:49.452Z,5.76
2023-04-08T02:26:17.047Z,5.67
2023-04-08T02:28:43.845Z,5.74
2023-04-08T02:31:13.761Z,5.65
2023-04-08T02:33:40.538Z,5.58
2023-04-08T02:36:08.264Z,5.86
2023-04-08T02:38:34.879Z,5.78
2023-04-08T02:41:01.641Z,5.91
2023-04-08T02:43:31.987Z,5.85
2023-04-08T02:46:00.581Z,5.88
2023-04-08T02:48:27.246Z,5.80
2023-04-08T02:50:54.569Z,5.63
2023-04-08T02:53:22.464Z,5.54
2023-04-08T02:55:49.099Z,5.67
2023-04-08T02:58:17.967Z,5.59
2023-04-08T03:00:44.686Z,5.67
2023-04-08T03:03:11.269Z,5.56
2023-04-08T03:05:37.813Z,5.67
2023-04-08T03:08:04.514Z,5.83
2023-04-08T03:10:31.069Z,5.70
2023-04-08T03:12:57.466Z,5.81
2023-04-08T03:15:24.009Z,5.94
2023-04-08T03:17:51.532Z,5.82
2023-04-08T03:20:18.209Z,5.80
2023-04-08T03:22:44.663Z,5.98
2023-04-08T03:25:12.283Z,5.76
2023-04-08T03:27:38.702Z,5.89
2023-04-08T03:30:05.597Z,5.77
2023-04-08T03:32:32.908Z,5.82
2023-04-08T03:34:59.628Z,5.80
2023-04-08T03:37:26.210Z,5.52
2023-04-08T03:39:53.322Z,5.87
2023-04-08T03:42:20.266Z,5.95
2023-04-08T03:44:48.204Z,5.79
2023-04-08T03:47:14.902Z,5.82
2023-04-08T03:49:41.752Z,5.64
2023-04-08T03:52:10.877Z,5.62
2023-04-08T03:54:38.140Z,5.46
2023-04-08T03:57:04.761Z,5.50
2023-04-08T03:59:31.312Z,5.35
2023-04-08T04:01:58.157Z,5.34
2023-04-08T04:04:24.854Z,5.30
2023-04-08T04:06:51.547Z,5.36
2023-04-08T04:09:18.624Z,5.25
2023-04-08T04:11:45.026Z,5.31
2023-04-08T04:14:11.545Z,5.28
2023-04-08T04:16:38.125Z,5.35
2023-04-08T04:19:04.910Z,5.38
2023-04-08T04:21:32.178Z,5.37
2023-04-08T04:23:58.560Z,5.52
2023-04-08T04:26:25.112Z,5.49
2023-04-08T04:28:51.890Z,5.37
2023-04-08T04:31:19.740Z,5.29
2023-04-08T04:33:47.481Z,5.37
2023-04-08T04:36:14.662Z,5.46
2023-04-08T04:38:41.358Z,5.44
2023-04-08T04:41:07.866Z,5.52
2023-04-08T04:43:34.337Z,5.37
2023-04-08T04:46:02.382Z,5.36
2023-04-08T04:48:28.779Z,5.36
2023-04-08T04:50:56.284Z,5.39
2023-04-08T04:53:22.702Z,5.33
2023-04-08T04:55:50.512Z,5.51
2023-04-08T04:58:17.325Z,5.59
2023-04-08T05:00:43.829Z,5.47
2023-04-08T05:03:10.735Z,5.56
2023-04-08T05:05:37.429Z,5.66
2023-04-08T05:08:04.032Z,5.49
2023-04-08T05:10:31.252Z,5.66
2023-04-08T05:12:57.893Z,5.51
2023-04-08T05:15:24.348Z,5.49
2023-04-08T05:17:50.902Z,5.61
2023-04-08T05:20:17.696Z,5.56
2023-04-08T05:22:45.455Z,5.63
2023-04-08T05:25:12.012Z,5.43
2023-04-08T05:27:38.644Z,5.36
2023-04-08T05:30:05.768Z,5.36
2023-04-08T05:32:32.344Z,5.51
2023-04-08T05:34:58.819Z,5.60
2023-04-08T05:37:25.161Z,5.92
2023-04-08T05:39:51.718Z,5.66
2023-04-08T05:42:18.988Z,5.94
2023-04-08T05:44:45.521Z,5.89
2023-04-08T05:47:12.053Z,5.99
2023-04-08T05:49:38.534Z,6.05
2023-04-08T05:52:05.419Z,6.11
2023-04-08T05:54:32.081Z,6.17
2023-04-08T05:56:59.178Z,6.14
2023-04-08T05:59:26.048Z,6.25
2023-04-08T06:01:52.692Z,5.84
2023-04-08T06:04:19.286Z,5.97
2023-04-08T06:06:45.837Z,5.73
2023-04-08T06:09:12.456Z,6.08
2023-04-08T06:11:38.955Z,6.31
2023-04-08T06:14:05.381Z,6.19
2023-04-08T06:16:31.981Z,6.29
2023-04-08T06:18:58.438Z,6.04
2023-04-08T06:21:24.981Z,5.73
2023-04-08T06:23:51.364Z,5.96
2023-04-08T06:26:18.242Z,6.07
2023-04-08T06:28:44.668Z,5.95
2023-04-08T06:31:11.617Z,6.03
2023-04-08T06:33:38.017Z,6.10
2023-04-08T06:36:05.141Z,6.57
2023-04-08T06:38:35.248Z,6.18
2023-04-08T06:41:04.742Z,6.47
2023-04-08T06:43:31.480Z,6.28
2023-04-08T06:45:58.214Z,6.33
2023-04-08T06:48:28.969Z,6.69
2023-04-08T06:50:56.321Z,6.76
2023-04-08T06:53:24.371Z,6.75
2023-04-08T06:55:51.001Z,6.94
2023-04-08T06:58:18.077Z,6.98
2023-04-08T07:00:44.747Z,6.65
2023-04-08T07:03:14.288Z,6.99
2023-04-08T07:05:42.306Z,6.90
2023-04-08T07:08:09.071Z,6.91
2023-04-08T07:10:35.927Z,7.05
2023-04-08T07:13:02.738Z,7.22
2023-04-08T07:15:29.283Z,7.19
2023-04-08T07:17:59.818Z,7.27
2023-04-08T07:20:26.532Z,7.50
2023-04-08T07:22:53.268Z,7.59
2023-04-08T07:25:19.807Z,7.42
2023-04-08T07:27:46.595Z,7.43
2023-04-08T07:30:13.806Z,7.36
2023-04-08T07:32:41.056Z,7.43
2023-04-08T07:35:10.547Z,7.37
2023-04-08T07:37:36.981Z,7.38
2023-04-08T07:40:04.231Z,7.45
2023-04-08T07:42:30.778Z,7.53
2023-04-08T07:44:57.147Z,7.33
2023-04-08T07:47:23.683Z,7.36
2023-04-08T07:49:50.314Z,7.19
2023-04-08T07:52:17.205Z,7.41
2023-04-08T07:54:43.641Z,7.21
2023-04-08T07:57:10.146Z,6.89
2023-04-08T07:59:36.979Z,7.04
2023-04-08T08:02:03.864Z,7.10
2023-04-08T08:04:30.414Z,7.17
2023-04-08T08:06:57.026Z,6.93
2023-04-08T08:09:23.538Z,6.95
2023-04-08T08:11:50.134Z,7.12
2023-04-08T08:14:16.757Z,6.69
2023-04-08T08:16:44.718Z,6.67
2023-04-08T08:19:12.722Z,6.79
2023-04-08T08:21:39.833Z,7.13
2023-04-08T08:24:06.723Z,6.53
2023-04-08T08:26:39.503Z,7.03
2023-04-08T08:29:08.784Z,7.04
2023-04-08T08:31:35.897Z,6.81
2023-04-08T08:34:03.105Z,7.04
2023-04-08T08:36:29.773Z,7.31
2023-04-08T08:38:56.580Z,7.71
2023-04-08T08:41:23.327Z,7.32
2023-04-08T08:43:49.985Z,7.16
2023-04-08T08:46:18.261Z,7.26
2023-04-08T08:48:45.207Z,7.60
2023-04-08T08:51:12.192Z,7.49
2023-04-08T08:53:39.044Z,7.70
2023-04-08T08:58:39.492Z,7.92
2023-04-08T09:01:25.030Z,8.03
2023-04-08T09:04:07.453Z,8.12
2023-04-08T09:06:33.984Z,8.15
2023-04-08T09:09:00.632Z,8.06
2023-04-08T09:11:27.121Z,8.11
2023-04-08T09:13:53.718Z,7.64
2023-04-08T09:16:20.464Z,7.93
2023-04-08T09:18:49.422Z,7.94
2023-04-08T09:21:17.136Z,7.75
2023-04-08T09:23:48.233Z,7.85
2023-04-08T09:26:16.992Z,8.06
2023-04-08T09:28:44.542Z,8.06
2023-04-08T09:31:24.750Z,8.05
2023-04-08T09:33:53.202Z,7.54
2023-04-08T09:36:19.592Z,7.70
2023-04-08T09:38:46.905Z,7.50
2023-04-08T09:41:17.477Z,7.22
2023-04-08T09:43:49.692Z,7.45
2023-04-08T09:46:18.441Z,7.70
2023-04-08T09:48:50.713Z,7.60
2023-04-08T09:51:19.799Z,7.55
2023-04-08T09:53:54.805Z,7.36
2023-04-08T09:56:22.433Z,7.43
2023-04-08T09:58:54.722Z,7.38
2023-04-08T10:01:26.160Z,7.20
2023-04-08T10:03:55.080Z,7.10
2023-04-08T10:06:22.573Z,7.33
2023-04-08T10:08:49.084Z,7.29
2023-04-08T10:11:16.277Z,7.23
2023-04-08T10:13:43.961Z,7.31
2023-04-08T10:16:17.272Z,6.82
2023-04-08T10:18:44.517Z,7.30
2023-04-08T10:21:31.540Z,7.17
2023-04-08T10:24:06.362Z,7.44
2023-04-08T10:26:34.698Z,7.33
2023-04-08T10:29:27.285Z,7.29
2023-04-08T10:31:53.696Z,7.46
2023-04-08T10:34:27.589Z,7.56
2023-04-08T10:36:55.855Z,7.50
2023-04-08T10:39:22.668Z,7.65
2023-04-08T10:41:50.709Z,7.74
2023-04-08T10:44:17.983Z,7.23
2023-04-08T10:46:46.071Z,7.01
2023-04-08T10:49:13.326Z,7.48
2023-04-08T10:51:40.442Z,7.70
2023-04-08T10:54:10.968Z,7.50
2023-04-08T10:56:43.869Z,7.55
2023-04-08T10:59:11.114Z,7.34
2023-04-08T11:01:41.486Z,7.42
2023-04-08T11:04:13.133Z,7.56
2023-04-08T11:06:39.654Z,7.33
2023-04-08T11:09:06.174Z,7.00
2023-04-08T11:11:36.172Z,7.72
2023-04-08T11:14:03.505Z,7.95
2023-04-08T11:16:30.044Z,7.28
2023-04-08T11:18:57.119Z,7.45
2023-04-08T11:21:24.243Z,7.79
2023-04-08T11:23:52.300Z,8.27
2023-04-08T11:26:19.987Z,8.18
2023-04-08T11:28:49.320Z,8.46
2023-04-08T11:31:17.563Z,8.79
2023-04-08T11:33:53.374Z,8.77
2023-04-08T11:36:22.211Z,8.71
2023-04-08T11:38:49.081Z,8.67
2023-04-08T11:41:16.405Z,8.51
2023-04-08T11:44:01.373Z,8.57
2023-04-08T11:46:29.493Z,8.96
2023-04-08T11:48:59.787Z,8.97
2023-04-08T11:51:27.310Z,9.26
2023-04-08T11:53:56.188Z,9.29
2023-04-08T11:56:23.955Z,9.03
2023-04-08T11:58:51.236Z,8.83
2023-04-08T12:01:18.137Z,8.85
2023-04-08T12:03:58.517Z,8.37
2023-04-08T12:06:27.277Z,8.67
2023-04-08T12:08:54.835Z,8.74
2023-04-08T12:11:21.600Z,8.43
2023-04-08T12:13:50.977Z,8.42
2023-04-08T12:16:18.111Z,8.39
2023-04-08T12:18:45.105Z,8.41
2023-04-08T12:21:11.721Z,8.28
2023-04-08T12:23:38.244Z,8.35
2023-04-08T12:26:05.168Z,8.06
2023-04-08T12:28:32.556Z,8.00
2023-04-08T12:30:58.991Z,8.04
2023-04-08T12:33:26.489Z,8.04
2023-04-08T12:35:54.237Z,8.02
2023-04-08T12:38:20.782Z,8.11
2023-04-08T12:40:49.185Z,8.04
2023-04-08T12:43:16.731Z,7.80
2023-04-08T12:45:43.609Z,7.84
2023-04-08T12:48:10.644Z,7.81
2023-04-08T12:50:37.196Z,7.74
2023-04-08T12:53:03.654Z,7.76
2023-04-08T12:55:33.330Z,7.82
2023-04-08T12:57:59.849Z,7.58
2023-04-08T13:00:26.750Z,7.87
2023-04-08T13:02:53.202Z,7.71
2023-04-08T13:05:26.294Z,7.72
2023-04-08T13:07:59.839Z,7.85
2023-04-08T13:10:26.698Z,7.70
2023-04-08T13:12:53.469Z,7.78
2023-04-08T13:15:20.090Z,7.57
2023-04-08T13:17:46.568Z,7.44
2023-04-08T13:20:13.108Z,7.52
2023-04-08T13:22:41.542Z,7.72
2023-04-08T13:25:08.213Z,7.48
2023-04-08T13:27:34.816Z,7.51
2023-04-08T13:30:01.919Z,7.45
2023-04-08T13:32:28.434Z,7.41
2023-04-08T13:34:54.813Z,7.63
2023-04-08T13:37:21.536Z,7.79
2023-04-08T13:39:47.995Z,8.30
2023-04-08T13:44:54.238Z,8.56
2023-04-08T13:47:20.819Z,8.27
2023-04-08T13:49:47.455Z,9.05
2023-04-08T13:52:13.981Z,8.77
2023-04-08T13:54:40.698Z,8.80
2023-04-08T13:57:07.171Z,8.92
2023-04-08T13:59:33.584Z,8.96
2023-04-08T14:02:00.275Z,9.22
2023-04-08T14:04:27.509Z,8.95
2023-04-08T14:06:54.009Z,9.31
2023-04-08T14:09:21.184Z,9.05
2023-04-08T14:11:47.602Z,9.24
2023-04-08T14:14:14.082Z,9.30
2023-04-08T14:16:41.822Z,9.02
2023-04-08T14:19:08.520Z,9.11
2023-04-08T14:21:34.995Z,9.28
2023-04-08T14:24:02.696Z,9.14
2023-04-08T14:26:29.599Z,9.21
2023-04-08T14:28:56.007Z,9.65
2023-04-08T14:31:22.568Z,9.50
2023-04-08T14:33:49.096Z,9.29
2023-04-08T14:36:16.786Z,9.62
2023-04-08T14:38:43.286Z,9.62
2023-04-08T14:41:10.351Z,9.68
2023-04-08T14:43:36.915Z,9.24
2023-04-08T14:46:03.366Z,9.60
2023-04-08T14:48:30.831Z,9.57
2023-04-08T14:50:57.624Z,9.66
2023-04-08T14:53:24.289Z,9.42
2023-04-08T14:55:57.417Z,8.98
2023-04-08T14:58:23.846Z,9.50
2023-04-08T15:00:50.414Z,9.61
2023-04-08T15:03:18.015Z,9.30
2023-04-08T15:05:45.234Z,9.55
2023-04-08T15:08:11.986Z,9.48
2023-04-08T15:10:38.388Z,9.76
2023-04-08T15:13:04.964Z,9.75
2023-04-08T15:15:31.521Z,9.85
2023-04-08T15:17:58.157Z,9.81
2023-04-08T15:20:24.901Z,9.66
2023-04-08T15:22:51.984Z,9.63
2023-04-08T15:25:18.457Z,9.50
2023-04-08T15:27:44.927Z,9.22
2023-04-08T15:30:12.547Z,9.20
2023-04-08T15:32:40.597Z,9.35
2023-04-08T15:35:07.827Z,9.28
2023-04-08T15:37:34.367Z,9.18
2023-04-08T15:40:01.036Z,8.93
2023-04-08T15:42:27.678Z,9.01
2023-04-08T15:44:54.238Z,8.80
2023-04-08T15:47:20.869Z,9.01
2023-04-08T15:49:48.947Z,9.12
2023-04-08T15:52:15.567Z,8.86
2023-04-08T15:54:42.142Z,8.82
2023-04-08T15:57:08.786Z,8.71
2023-04-08T15:59:35.915Z,8.76
2023-04-08T16:02:03.336Z,8.96
2023-04-08T16:04:30.092Z,9.19
2023-04-08T16:06:57.078Z,9.13
2023-04-08T16:09:26.759Z,9.03
2023-04-08T16:11:53.778Z,9.01
2023-04-08T16:14:20.192Z,9.02
2023-04-08T16:16:47.320Z,8.91
2023-04-08T16:19:14.336Z,8.97
2023-04-08T16:21:40.725Z,8.87
2023-04-08T16:24:07.618Z,8.79
2023-04-08T16:26:34.357Z,8.76
2023-04-08T16:29:01.118Z,8.87
2023-04-08T16:31:27.636Z,8.98
2023-04-08T16:33:54.368Z,8.56
2023-04-08T16:36:21.642Z,8.86
2023-04-08T16:38:48.263Z,8.98
2023-04-08T16:41:14.812Z,8.84
2023-04-08T16:43:41.713Z,8.68
2023-04-08T16:46:26.839Z,8.93
2023-04-08T16:48:53.335Z,8.94
2023-04-08T16:51:19.919Z,8.82
2023-04-08T16:53:46.345Z,8.84
2023-04-08T16:56:16.691Z,8.91
2023-04-08T16:58:43.704Z,8.80
2023-04-08T17:01:16.479Z,8.85
2023-04-08T17:03:43.117Z,8.90
2023-04-08T17:06:10.673Z,9.18
2023-04-08T17:08:37.043Z,9.22
2023-04-08T17:11:07.943Z,8.94
2023-04-08T17:13:34.557Z,8.95
2023-04-08T17:16:01.190Z,8.94
2023-04-08T17:18:27.734Z,8.96
2023-04-08T17:20:54.269Z,8.61
2023-04-08T17:23:20.885Z,8.49
2023-04-08T17:25:47.754Z,8.58
2023-04-08T17:28:15.384Z,8.68
2023-04-08T17:30:42.005Z,8.69
2023-04-08T17:33:09.155Z,8.79
2023-04-08T17:35:36.158Z,8.55
2023-04-08T17:38:03.277Z,8.56
2023-04-08T17:40:30.541Z,8.58
2023-04-08T17:42:57.471Z,8.45
2023-04-08T17:45:24.279Z,8.60
2023-04-08T17:47:51.865Z,8.72
2023-04-08T17:50:18.744Z,8.55
2023-04-08T17:52:48.602Z,8.64
2023-04-08T17:55:15.005Z,8.56
2023-04-08T17:57:41.978Z,8.61
2023-04-08T18:00:09.015Z,8.50
2023-04-08T18:02:36.995Z,8.49
2023-04-08T18:05:04.255Z,8.60
2023-04-08T18:07:30.909Z,8.65
2023-04-08T18:09:57.378Z,8.63
2023-04-08T18:12:23.887Z,8.62
2023-04-08T18:14:51.051Z,8.41
2023-04-08T18:17:17.536Z,8.43
2023-04-08T18:19:43.933Z,8.27
2023-04-08T18:22:10.456Z,8.28
2023-04-08T18:24:37.346Z,8.36
2023-04-08T18:27:05.065Z,8.38
2023-04-08T18:29:31.743Z,8.43
2023-04-08T18:31:58.216Z,8.35
2023-04-08T18:34:25.367Z,8.43
2023-04-08T18:36:52.229Z,8.36
2023-04-08T18:39:18.761Z,8.39
2023-04-08T18:41:45.358Z,8.48
2023-04-08T18:44:12.210Z,8.50
2023-04-08T18:46:39.145Z,8.50
2023-04-08T18:49:05.826Z,8.47
2023-04-08T18:51:33.630Z,8.45
2023-04-08T18:54:00.111Z,8.57
2023-04-08T18:56:26.698Z,8.60
2023-04-08T18:58:54.768Z,8.65
2023-04-08T19:01:21.796Z,8.52
2023-04-08T19:03:48.734Z,8.64
2023-04-08T19:06:17.342Z,8.66
2023-04-08T19:08:43.827Z,8.61
2023-04-08T19:11:10.348Z,8.62
2023-04-08T19:13:37.105Z,8.61
2023-04-08T19:16:03.766Z,8.40
2023-04-08T19:18:30.464Z,8.38
2023-04-08T19:20:57.013Z,8.38
2023-04-08T19:23:23.481Z,8.37
2023-04-08T19:25:50.461Z,8.29
2023-04-08T19:28:18.105Z,8.28
2023-04-08T19:30:44.981Z,8.20
2023-04-08T19:33:11.454Z,8.20
2023-04-08T19:35:39.408Z,8.25
2023-04-08T19:38:06.794Z,8.23
2023-04-08T19:40:33.284Z,8.23
2023-04-08T19:42:59.700Z,8.33
2023-04-08T19:45:26.240Z,8.24
2023-04-08T19:47:52.850Z,8.23
2023-04-08T19:50:22.278Z,8.22
2023-04-08T19:52:49.085Z,8.37
2023-04-08T19:55:15.900Z,8.31
2023-04-08T19:57:42.452Z,8.35
2023-04-08T20:00:09.348Z,8.38
2023-04-08T20:02:35.911Z,8.29
2023-04-08T20:05:03.089Z,8.36
2023-04-08T20:07:29.674Z,8.32
2023-04-08T20:09:56.182Z,8.36
2023-04-08T20:12:22.664Z,8.37
2023-04-08T20:14:49.521Z,8.39
2023-04-08T20:17:16.629Z,8.41
2023-04-08T20:19:43.047Z,8.42
2023-04-08T20:22:09.672Z,8.47
2023-04-08T20:24:36.888Z,8.43
2023-04-08T20:27:03.516Z,8.42
2023-04-08T20:29:30.018Z,8.44
2023-04-08T20:31:56.756Z,8.51
2023-04-08T20:34:23.186Z,8.50
2023-04-08T20:36:49.680Z,8.46
2023-04-08T20:39:16.398Z,8.39
2023-04-08T20:41:43.499Z,8.49
2023-04-08T20:44:10.797Z,8.43
2023-04-08T20:46:37.942Z,8.41
2023-04-08T20:49:05.121Z,8.48
2023-04-08T20:51:34.228Z,8.45
2023-04-08T20:54:01.258Z,8.48
2023-04-08T20:56:28.373Z,8.33
2023-04-08T20:58:55.139Z,8.35
2023-04-08T21:01:24.114Z,8.33
2023-04-08T21:03:51.020Z,8.26
2023-04-08T21:06:18.259Z,8.32
2023-04-08T21:08:45.412Z,8.37
2023-04-08T21:11:12.327Z,8.36
2023-04-08T21:13:38.933Z,8.26
2023-04-08T21:16:05.930Z,8.29
2023-04-08T21:18:32.604Z,8.35
2023-04-08T21:21:02.067Z,8.37
2023-04-08T21:23:28.693Z,8.37
2023-04-08T21:25:55.329Z,8.32
2023-04-08T21:28:22.092Z,8.10
2023-04-08T21:30:48.730Z,8.12
2023-04-08T21:33:15.681Z,8.14
2023-04-08T21:35:42.145Z,8.15
2023-04-08T21:38:08.689Z,8.15
2023-04-08T21:40:35.401Z,8.15
2023-04-08T21:43:01.895Z,8.04
2023-04-08T21:45:29.996Z,7.98
2023-04-08T21:47:56.677Z,8.05
2023-04-08T21:50:23.182Z,7.93
2023-04-08T21:52:49.539Z,7.92
2023-04-08T21:55:16.164Z,7.88
2023-04-08T21:57:43.320Z,7.86
2023-04-08T22:00:13.606Z,7.86
2023-04-08T22:02:43.833Z,7.83
2023-04-08T22:05:10.871Z,7.87
2023-04-08T22:07:38.003Z,7.94
2023-04-08T22:10:04.655Z,7.86
2023-04-08T22:12:31.076Z,7.79
2023-04-08T22:14:58.174Z,7.83
2023-04-08T22:17:24.821Z,7.70
2023-04-08T22:19:51.617Z,7.77
2023-04-08T22:22:18.194Z,7.71
2023-04-08T22:24:44.911Z,7.67
2023-04-08T22:27:14.972Z,7.82
2023-04-08T22:29:41.862Z,7.77
2023-04-08T22:32:10.495Z,7.83
2023-04-08T22:34:37.056Z,7.83
2023-04-08T22:37:03.639Z,7.90
2023-04-08T22:39:30.141Z,7.82
2023-04-08T22:41:57.678Z,7.70
2023-04-08T22:44:24.122Z,7.73
2023-04-08T22:46:50.722Z,7.73
2023-04-08T22:49:17.345Z,7.60
2023-04-08T22:51:43.986Z,7.64
2023-04-08T22:54:11.208Z,7.64
2023-04-08T22:56:37.607Z,7.72
2023-04-08T22:59:04.193Z,7.53
2023-04-08T23:01:31.026Z,7.56
2023-04-08T23:03:57.678Z,7.61
2023-04-08T23:06:25.817Z,7.54
2023-04-08T23:08:52.414Z,7.69
2023-04-08T23:11:18.995Z,7.57
2023-04-08T23:13:45.529Z,7.61
2023-04-08T23:16:12.238Z,7.71
2023-04-08T23:18:38.731Z,7.59
2023-04-08T23:21:05.500Z,7.69
2023-04-08T23:23:32.350Z,7.70
2023-04-08T23:25:59.042Z,7.51
2023-04-08T23:28:25.706Z,7.61
2023-04-08T23:30:52.336Z,7.65
2023-04-08T23:33:18.910Z,7.61
2023-04-08T23:35:45.675Z,7.58
2023-04-08T23:38:12.282Z,7.58
2023-04-08T23:40:38.695Z,7.56
2023-04-08T23:43:05.376Z,7.58
2023-04-08T23:45:34.087Z,7.56
2023-04-08T23:48:00.598Z,7.52
2023-04-08T23:50:27.147Z,7.61
2023-04-08T23:52:53.761Z,7.48
2023-04-08T23:55:20.235Z,7.55
2023-04-08T23:57:49.246Z,7.49
